Time;durP1;ratioP1;P1;durP2;ratioP2;P2;SDS_P1;SDS_P2;PMS_P1;PMS_P2;Temp;Humidity;BMP_temperature;BMP_pressure;BME280_temperature;BME280_humidity;BME280_pressure;Samples;Min_cycle;Max_cycle;Signal;HPM_P1;HPM_P2
2023/12/05 00:03:21;;;;;;;9.80;4.32;;;;;;;1.29;67.96;98559.84;10512197;28;20040;-67
2023/12/05 00:08:23;;;;;;;8.40;4.00;;;;;;;1.28;68.05;98553.00;10512361;28;20927;-67
2023/12/05 00:13:25;;;;;;;8.40;4.53;;;;;;;1.26;67.94;98550.50;10492506;28;20058;-66
2023/12/05 00:18:27;;;;;;;8.13;4.00;;;;;;;1.33;68.04;98539.06;10516070;28;20044;-66
2023/12/05 00:23:29;;;;;;;8.60;4.40;;;;;;;1.42;67.68;98534.38;10514664;28;20039;-66
2023/12/05 00:28:31;;;;;;;9.02;4.85;;;;;;;1.49;67.64;98540.91;10511147;28;20044;-67
2023/12/05 00:33:33;;;;;;;8.98;4.45;;;;;;;1.51;67.62;98539.09;10499649;28;20066;-66
2023/12/05 00:38:36;;;;;;;13.23;4.60;;;;;;;1.72;67.19;98535.56;10498122;28;20051;-67
2023/12/05 00:43:38;;;;;;;9.02;4.38;;;;;;;1.72;66.99;98540.72;10516674;28;20055;-67
2023/12/05 00:48:39;;;;;;;8.27;3.63;;;;;;;1.72;66.80;98533.00;10514717;28;20081;-66
2023/12/05 00:53:42;;;;;;;11.10;4.60;;;;;;;1.65;67.25;98527.28;10513079;28;20555;-66
2023/12/05 00:58:44;;;;;;;9.13;4.65;;;;;;;1.59;67.35;98526.72;10516355;28;20050;-67
2023/12/05 01:03:46;;;;;;;8.65;4.45;;;;;;;1.66;67.19;98508.34;10495553;28;20115;-66
2023/12/05 01:08:48;;;;;;;6.95;3.72;;;;;;;1.63;67.60;98500.75;10513660;28;20050;-66
2023/12/05 01:13:50;;;;;;;8.23;4.13;;;;;;;1.53;68.26;98506.38;10514532;28;20775;-66
2023/12/05 01:18:52;;;;;;;8.15;4.32;;;;;;;1.40;68.84;98507.88;10506726;28;20039;-67
2023/12/05 01:23:54;;;;;;;9.32;4.10;;;;;;;1.43;68.84;98508.56;10496238;28;20044;-67
2023/12/05 01:28:58;;;;;;;6.60;3.72;;;;;;;1.51;69.04;98508.19;10531141;28;20476;-66
2023/12/05 01:34:00;;;;;;;7.78;3.88;;;;;;;1.62;69.02;98503.41;10510311;28;20044;-66
2023/12/05 01:39:02;;;;;;;5.75;3.15;;;;;;;1.74;68.86;98502.81;10514222;28;20048;-67
2023/12/05 01:44:04;;;;;;;7.32;3.40;;;;;;;1.85;68.58;98503.13;10511475;28;20177;-67
2023/12/05 01:49:07;;;;;;;5.93;3.70;;;;;;;1.86;68.76;98509.97;10510228;28;20631;-67
2023/12/05 01:54:19;;;;;;;5.60;3.05;;;;;;;1.93;68.73;98509.59;10510504;28;20044;-66
2023/12/05 01:59:22;;;;;;;5.60;3.28;;;;;;;2.06;68.34;98502.13;10514007;28;20117;-67
2023/12/05 02:04:25;;;;;;;5.60;3.38;;;;;;;2.11;68.30;98505.34;10506842;28;20064;-68
2023/12/05 02:09:27;;;;;;;6.40;3.10;;;;;;;2.16;68.19;98487.88;10493340;28;20044;-67
2023/12/05 02:14:29;;;;;;;6.97;3.55;;;;;;;2.23;67.93;98497.81;10514409;28;20048;-66
2023/12/05 02:19:42;;;;;;;6.47;3.90;;;;;;;2.15;68.07;98489.63;10496102;28;20047;-67
2023/12/05 02:24:44;;;;;;;6.75;2.80;;;;;;;2.19;68.08;98488.56;10513565;28;20652;-67
2023/12/05 02:29:49;;;;;;;7.25;3.92;;;;;;;2.25;68.03;98484.03;10516795;28;20047;-67
2023/12/05 02:34:50;;;;;;;5.95;3.03;;;;;;;2.29;67.86;98486.38;10494040;28;20036;-67
2023/12/05 02:40:14;;;;;;;8.48;4.28;;;;;;;2.29;67.93;98494.13;10521953;28;20046;-67
2023/12/05 02:45:19;;;;;;;6.68;3.50;;;;;;;2.38;67.81;98488.50;10520635;28;20056;-66
2023/12/05 02:50:21;;;;;;;5.45;2.90;;;;;;;2.44;67.32;98483.03;10517982;28;20127;-65
2023/12/05 02:55:23;;;;;;;6.20;3.15;;;;;;;2.41;67.00;98484.94;10521240;28;20415;-68
2023/12/05 03:00:25;;;;;;;5.53;3.35;;;;;;;2.33;67.30;98481.91;10502354;28;20048;-66
2023/12/05 03:05:27;;;;;;;7.22;3.50;;;;;;;2.33;67.43;98476.75;10520845;28;20055;-67
2023/12/05 03:10:29;;;;;;;7.90;3.67;;;;;;;2.19;67.67;98478.25;10518967;28;20040;-66
2023/12/05 03:15:31;;;;;;;6.93;3.10;;;;;;;2.15;68.01;98468.19;10514883;28;20036;-66
2023/12/05 03:20:33;;;;;;;7.60;4.20;;;;;;;2.21;67.87;98480.78;10518572;28;20047;-66
2023/12/05 03:25:35;;;;;;;8.35;3.92;;;;;;;2.21;67.73;98476.41;10514905;28;20151;-66
2023/12/05 03:30:37;;;;;;;7.45;3.78;;;;;;;2.28;67.85;98474.38;10519391;28;20052;-66
2023/12/05 03:35:39;;;;;;;6.85;3.50;;;;;;;2.41;67.62;98478.03;10500206;28;20060;-66
2023/12/05 03:40:41;;;;;;;7.30;3.75;;;;;;;2.52;67.11;98469.75;10499993;28;20040;-66
2023/12/05 03:45:43;;;;;;;7.97;4.03;;;;;;;2.53;66.96;98477.41;10516650;28;20519;-67
2023/12/05 03:50:45;;;;;;;8.90;4.22;;;;;;;2.61;66.74;98474.44;10514486;28;20864;-66
2023/12/05 03:55:47;;;;;;;8.95;4.22;;;;;;;2.62;66.72;98482.09;10514468;28;20055;-66
2023/12/05 04:00:49;;;;;;;7.07;3.88;;;;;;;2.53;66.69;98480.00;10517131;28;20068;-66
2023/12/05 04:05:51;;;;;;;6.70;3.58;;;;;;;2.59;66.66;98484.84;10496902;28;20517;-66
2023/12/05 04:10:53;;;;;;;9.00;4.20;;;;;;;2.61;66.64;98489.94;10516336;28;20055;-67
2023/12/05 04:15:55;;;;;;;8.60;3.50;;;;;;;2.61;66.83;98485.59;10516379;28;20438;-66
2023/12/05 04:20:57;;;;;;;8.20;3.83;;;;;;;2.58;66.88;98485.75;10514541;28;20040;-66
2023/12/05 04:25:59;;;;;;;7.70;4.05;;;;;;;2.60;66.86;98486.50;10515754;28;20052;-66
2023/12/05 04:31:01;;;;;;;8.40;4.20;;;;;;;2.63;66.50;98481.19;10506239;28;20184;-67
2023/12/05 04:36:03;;;;;;;7.38;4.00;;;;;;;2.68;66.68;98489.53;10511832;28;20598;-67
2023/12/05 04:41:06;;;;;;;7.82;4.28;;;;;;;2.65;66.49;98481.97;10507802;28;20051;-66
2023/12/05 04:46:09;;;;;;;8.15;4.30;;;;;;;2.64;66.71;98485.44;10510706;28;20052;-67
2023/12/05 04:51:18;;;;;;;8.68;4.25;;;;;;;2.73;66.59;98486.72;10510964;28;20040;-67
2023/12/05 04:56:20;;;;;;;9.02;4.00;;;;;;;2.75;66.62;98488.31;10508937;28;20064;-67
2023/12/05 05:01:22;;;;;;;6.43;3.88;;;;;;;2.80;66.35;98490.66;10466533;28;20063;-66
2023/12/05 05:06:24;;;;;;;8.23;4.15;;;;;;;2.79;66.37;98495.00;10467369;28;20067;-67
2023/12/05 05:11:28;;;;;;;7.43;3.78;;;;;;;2.80;66.43;98499.25;10467737;28;20046;-67
2023/12/05 05:16:30;;;;;;;7.78;3.67;;;;;;;2.75;66.21;98501.22;10465946;28;20044;-67
2023/12/05 05:21:32;;;;;;;8.95;4.13;;;;;;;2.64;66.25;98500.91;10466964;28;20131;-67
2023/12/05 05:26:34;;;;;;;6.85;3.80;;;;;;;2.49;66.64;98500.88;10463440;28;20485;-67
2023/12/05 05:31:36;;;;;;;9.25;4.40;;;;;;;2.48;66.57;98499.22;10465741;28;20072;-67
2023/12/05 05:36:38;;;;;;;9.48;4.50;;;;;;;2.56;66.70;98505.63;10463805;28;20037;-67
2023/12/05 05:41:40;;;;;;;7.88;3.97;;;;;;;2.56;66.45;98497.09;10468910;28;20068;-66
2023/12/05 05:46:42;;;;;;;10.63;4.75;;;;;;;2.51;66.33;98505.03;10469168;28;20099;-65
2023/12/05 05:51:44;;;;;;;8.98;4.80;;;;;;;2.56;66.35;98508.22;10470319;28;20045;-66
2023/12/05 05:56:46;;;;;;;9.05;4.10;;;;;;;2.63;66.51;98504.44;10503037;28;20049;-67
2023/12/05 06:01:48;;;;;;;6.82;3.88;;;;;;;2.68;66.27;98504.22;10505561;28;20051;-67
2023/12/05 06:06:50;;;;;;;8.07;3.78;;;;;;;2.67;66.41;98518.84;10522320;28;20549;-66
2023/12/05 06:11:52;;;;;;;10.40;4.35;;;;;;;2.75;66.33;98510.72;10522433;28;20539;-66
2023/12/05 06:16:54;;;;;;;9.57;4.00;;;;;;;2.82;66.38;98506.91;10523649;28;20043;-66
2023/12/05 06:21:56;;;;;;;10.20;3.95;;;;;;;2.84;66.40;98498.19;10523282;28;20044;-67
2023/12/05 06:26:59;;;;;;;10.18;4.80;;;;;;;2.86;66.47;98503.28;10522444;28;20223;-67
2023/12/05 06:32:01;;;;;;;8.15;4.20;;;;;;;2.84;66.37;98512.84;10503668;28;20123;-66
2023/12/05 06:37:03;;;;;;;10.75;4.18;;;;;;;2.80;66.27;98506.16;10522043;28;20040;-67
2023/12/05 06:42:05;;;;;;;7.32;3.80;;;;;;;2.82;66.12;98507.75;10521697;28;20123;-67
2023/12/05 06:47:08;;;;;;;9.80;4.97;;;;;;;2.85;66.06;98515.34;10521674;28;20193;-66
2023/12/05 06:52:11;;;;;;;10.55;4.85;;;;;;;2.80;66.25;98532.81;10521513;28;20044;-67
2023/12/05 06:57:13;;;;;;;6.97;4.30;;;;;;;2.86;66.17;98529.94;10520681;28;20476;-66
2023/12/05 07:02:16;;;;;;;8.13;4.45;;;;;;;2.86;66.19;98532.50;10520227;28;20128;-67
2023/12/05 07:07:19;;;;;;;11.40;4.28;;;;;;;2.94;66.31;98527.78;10519352;28;20059;-66
2023/12/05 07:12:21;;;;;;;6.20;4.10;;;;;;;2.95;66.28;98537.19;10516040;28;20193;-65
2023/12/05 07:17:23;;;;;;;9.10;4.25;;;;;;;3.01;66.02;98551.53;10512252;28;20044;-66
2023/12/05 07:22:25;;;;;;;8.82;5.10;;;;;;;2.93;66.13;98557.09;10500623;28;20046;-67
2023/12/05 07:27:27;;;;;;;9.30;4.50;;;;;;;2.88;66.48;98561.66;10502298;28;20101;-67
2023/12/05 07:32:29;;;;;;;7.65;4.13;;;;;;;2.99;66.39;98561.94;10519021;28;20048;-67
2023/12/05 07:37:31;;;;;;;10.77;5.28;;;;;;;2.97;66.03;98566.34;10520342;28;20040;-66
2023/12/05 07:42:37;;;;;;;7.93;3.60;;;;;;;3.00;66.01;98576.53;10520159;28;20052;-66
2023/12/05 07:47:39;;;;;;;9.15;4.57;;;;;;;3.13;66.21;98576.72;10484348;28;20140;-67
2023/12/05 07:52:42;;;;;;;9.35;4.97;;;;;;;3.28;65.86;98588.03;10518806;28;20051;-65
2023/12/05 07:57:46;;;;;;;12.00;5.50;;;;;;;3.38;65.78;98591.81;10519125;28;20426;-66
2023/12/05 08:02:48;;;;;;;6.85;3.53;;;;;;;3.65;65.60;98588.63;10518941;28;20056;-66
2023/12/05 08:07:50;;;;;;;9.55;4.80;;;;;;;3.88;65.47;98592.59;10494906;28;20508;-66
2023/12/05 08:12:52;;;;;;;9.98;5.18;;;;;;;3.98;65.25;98598.94;10517369;28;20048;-67
2023/12/05 08:17:54;;;;;;;7.60;4.60;;;;;;;4.01;65.24;98600.50;10499441;28;20169;-67
2023/12/05 08:22:56;;;;;;;8.95;4.45;;;;;;;3.97;65.08;98609.34;10506926;28;20131;-66
2023/12/05 08:27:59;;;;;;;8.30;4.68;;;;;;;3.88;65.18;98609.88;10506072;28;20467;-67
2023/12/05 08:33:01;;;;;;;8.90;4.65;;;;;;;3.89;65.15;98604.59;10505202;28;20040;-66
2023/12/05 08:38:03;;;;;;;9.55;4.97;;;;;;;3.82;65.51;98618.75;10510588;28;20058;-66
2023/12/05 08:43:05;;;;;;;7.88;4.10;;;;;;;3.98;65.22;98622.22;10479359;28;20048;-64
2023/12/05 08:48:07;;;;;;;15.20;6.40;;;;;;;4.08;65.13;98623.41;10493540;28;20048;-66
2023/12/05 08:53:09;;;;;;;13.63;6.57;;;;;;;4.10;65.04;98626.75;10495486;28;20518;-66
2023/12/05 08:58:11;;;;;;;12.20;6.72;;;;;;;4.14;65.13;98623.06;10495168;28;21818;-66
2023/12/05 09:03:14;;;;;;;15.75;7.22;;;;;;;4.19;64.90;98628.00;10477600;28;20150;-66
2023/12/05 09:08:16;;;;;;;11.60;6.97;;;;;;;4.10;65.25;98628.47;10495854;28;20055;-66
2023/12/05 09:13:18;;;;;;;12.63;6.00;;;;;;;4.09;65.39;98634.59;10495697;28;20048;-66
2023/12/05 09:18:20;;;;;;;13.77;6.07;;;;;;;4.12;65.19;98637.00;10495831;28;20083;-66
2023/12/05 09:23:22;;;;;;;10.13;5.97;;;;;;;4.23;65.17;98640.66;10497307;28;20044;-67
2023/12/05 09:28:24;;;;;;;9.95;5.40;;;;;;;4.05;65.65;98646.03;10502245;28;20100;-67
2023/12/05 09:33:26;;;;;;;9.00;5.05;;;;;;;4.13;65.63;98655.00;10509923;28;20032;-66
2023/12/05 09:38:28;;;;;;;14.68;5.25;;;;;;;4.22;65.46;98657.13;10501225;28;20185;-67
2023/12/05 09:43:35;;;;;;;9.65;5.10;;;;;;;4.29;65.59;98662.81;10519836;28;20047;-67
2023/12/05 09:48:41;;;;;;;13.35;6.13;;;;;;;4.38;65.45;98655.38;10504858;28;20139;-66
2023/12/05 09:53:47;;;;;;;9.55;5.40;;;;;;;4.69;65.35;98655.34;10522408;28;20389;-66
2023/12/05 09:58:49;;;;;;;12.10;5.88;;;;;;;4.92;64.89;98654.03;10521802;28;20091;-66
2023/12/05 10:03:58;;;;;;;12.73;6.25;;;;;;;5.18;64.65;98647.34;10501426;28;20044;-67
2023/12/05 10:09:00;;;;;;;10.25;5.72;;;;;;;5.29;64.48;98650.13;10520299;28;20059;-67
2023/12/05 10:14:03;;;;;;;11.68;5.97;;;;;;;5.31;64.55;98637.94;10517381;28;20123;-67
2023/12/05 10:19:07;;;;;;;14.10;5.85;;;;;;;5.51;64.30;98640.19;10521882;28;20063;-66
2023/12/05 10:24:10;;;;;;;8.18;4.03;;;;;;;5.66;64.07;98628.03;10519478;28;20416;-67
2023/12/05 10:29:13;;;;;;;4.93;2.78;;;;;;;5.90;64.53;98639.53;10520810;28;20788;-66
2023/12/05 10:34:16;;;;;;;4.47;2.55;;;;;;;6.23;63.96;98630.50;10519672;28;20048;-66
2023/12/05 10:39:18;;;;;;;7.20;3.20;;;;;;;6.16;63.33;98631.81;10519537;28;20487;-66
2023/12/05 10:44:20;;;;;;;7.68;4.00;;;;;;;6.02;63.41;98641.38;10518900;28;20128;-66
2023/12/05 10:49:23;;;;;;;9.25;4.60;;;;;;;6.10;63.67;98632.16;10520035;28;20052;-66
2023/12/05 10:54:26;;;;;;;6.95;3.35;;;;;;;6.14;63.70;98628.47;10518990;28;20044;-66
2023/12/05 10:59:28;;;;;;;6.88;3.58;;;;;;;6.23;63.57;98632.25;10519837;28;20135;-66
2023/12/05 11:04:31;;;;;;;3.22;1.85;;;;;;;6.29;63.83;98624.94;10521322;28;20071;-66
2023/12/05 11:09:33;;;;;;;2.20;1.40;;;;;;;6.50;63.60;98625.34;10520635;28;20082;-67
2023/12/05 11:14:41;;;;;;;3.47;1.92;;;;;;;6.49;63.37;98625.47;10503347;28;20047;-66
2023/12/05 11:20:21;;;;;;;2.13;1.30;;;;;;;6.29;63.61;98627.53;10501572;28;20040;-66
2023/12/05 11:26:11;;;;;;;2.47;1.40;;;;;;;6.37;63.77;98619.25;10521077;28;20055;-66
2023/12/05 11:31:34;;;;;;;5.90;1.55;;;;;;;6.44;63.79;98622.31;10514274;28;20608;-66
2023/12/05 11:37:05;;;;;;;1.45;1.20;;;;;;;6.63;63.31;98618.47;10517406;28;20148;-66
2023/12/05 11:42:13;;;;;;;3.22;1.27;;;;;;;6.75;63.23;98620.25;10518142;28;20403;-66
2023/12/05 11:47:23;;;;;;;3.08;1.17;;;;;;;6.83;63.14;98619.75;10518110;28;20056;-66
2023/12/05 11:52:32;;;;;;;2.63;1.35;;;;;;;7.00;62.63;98620.28;10514812;28;20074;-66
2023/12/05 11:57:34;;;;;;;1.50;1.00;;;;;;;6.81;62.75;98616.41;10519521;28;20047;-66
2023/12/05 12:02:37;;;;;;;2.00;1.27;;;;;;;6.77;63.21;98627.94;10519024;28;20045;-66
2023/12/05 12:07:56;;;;;;;1.42;1.00;;;;;;;6.88;62.93;98625.47;10518507;28;20143;-67
2023/12/05 12:12:59;;;;;;;2.08;1.08;;;;;;;7.11;62.56;98619.59;10517523;28;20093;-66
2023/12/05 12:18:04;;;;;;;1.58;0.88;;;;;;;6.94;62.01;98620.69;10515854;28;20140;-66
2023/12/05 12:23:07;;;;;;;0.60;0.60;;;;;;;7.19;62.25;98620.75;10514022;28;20051;-66
2023/12/05 12:28:23;;;;;;;0.93;0.70;;;;;;;7.45;61.41;98619.00;10517077;28;20052;-66
2023/12/05 12:33:41;;;;;;;1.00;0.90;;;;;;;7.27;60.24;98614.19;10515714;28;20075;-66
2023/12/05 12:38:43;;;;;;;0.75;0.70;;;;;;;7.28;61.66;98619.31;10517620;28;20114;-66
2023/12/05 12:43:46;;;;;;;0.60;0.60;;;;;;;7.10;61.78;98623.16;10498607;28;20500;-66
2023/12/05 12:48:48;;;;;;;2.08;1.17;;;;;;;6.85;61.56;98628.28;10514235;28;20132;-66
2023/12/05 12:53:50;;;;;;;0.73;0.60;;;;;;;6.88;62.04;98623.69;10515908;28;20075;-66
2023/12/05 12:58:52;;;;;;;1.30;0.82;;;;;;;6.83;61.77;98630.16;10513683;28;20047;-66
2023/12/05 13:03:55;;;;;;;2.45;1.50;;;;;;;6.76;61.89;98634.06;10480449;28;20036;-66
2023/12/05 13:08:57;;;;;;;1.08;0.95;;;;;;;6.54;62.01;98639.81;10515834;28;20040;-65
2023/12/05 13:13:59;;;;;;;0.90;0.80;;;;;;;6.32;62.30;98644.69;10494942;28;20047;-66
2023/12/05 13:19:01;;;;;;;1.10;1.00;;;;;;;6.12;62.77;98655.47;10516474;28;20174;-66
2023/12/05 13:24:03;;;;;;;0.70;0.70;;;;;;;6.02;63.25;98652.56;10511532;28;20694;-66
2023/12/05 13:29:05;;;;;;;1.10;1.00;;;;;;;5.87;63.40;98660.47;10514831;28;20036;-66
2023/12/05 13:34:07;;;;;;;2.05;1.50;;;;;;;5.84;63.20;98653.69;10513338;28;20136;-66
2023/12/05 13:39:10;;;;;;;2.15;1.30;;;;;;;5.92;63.32;98661.03;10496479;28;20514;-66
2023/12/05 13:44:14;;;;;;;0.80;0.80;;;;;;;5.84;63.39;98664.09;10515515;28;20044;-66
2023/12/05 13:49:16;;;;;;;0.88;0.60;;;;;;;5.60;64.14;98668.16;10513145;28;20532;-66
2023/12/05 13:54:19;;;;;;;1.55;1.13;;;;;;;5.66;63.77;98672.97;10494810;28;20077;-66
2023/12/05 13:59:21;;;;;;;4.05;2.15;;;;;;;5.75;63.76;98677.63;10514532;28;20064;-66
2023/12/05 14:04:23;;;;;;;3.70;2.10;;;;;;;5.86;63.50;98685.56;10514964;28;20054;-66
2023/12/05 14:09:25;;;;;;;1.70;1.20;;;;;;;5.91;63.61;98670.59;10497197;28;20044;-66
2023/12/05 14:14:27;;;;;;;2.15;1.30;;;;;;;5.99;63.37;98678.72;10514690;28;20051;-66
2023/12/05 14:19:31;;;;;;;1.52;1.10;;;;;;;6.01;63.29;98691.59;10516117;28;20052;-66
2023/12/05 14:24:33;;;;;;;1.15;0.77;;;;;;;6.07;63.50;98691.22;10493227;28;20058;-66
2023/12/05 14:29:35;;;;;;;0.75;0.60;;;;;;;5.89;63.26;98703.56;10521422;28;20125;-66
2023/12/05 14:34:37;;;;;;;0.57;0.57;;;;;;;5.78;63.74;98703.38;10503749;28;20140;-66
2023/12/05 14:39:40;;;;;;;0.93;0.70;;;;;;;5.57;63.69;98717.63;10522309;28;20583;-66
2023/12/05 14:44:43;;;;;;;1.10;0.80;;;;;;;5.43;64.23;98717.59;10519661;28;20048;-66
2023/12/05 14:49:45;;;;;;;0.50;0.50;;;;;;;5.30;64.31;98721.81;10520802;28;20040;-66
2023/12/05 14:54:47;;;;;;;1.77;0.65;;;;;;;5.32;64.17;98726.00;10518883;28;20071;-66
2023/12/05 14:59:49;;;;;;;0.80;0.45;;;;;;;5.30;64.15;98724.41;10517570;28;20432;-67
2023/12/05 15:04:51;;;;;;;3.00;2.13;;;;;;;5.31;64.16;98733.84;10491043;28;20052;-67
2023/12/05 15:09:53;;;;;;;9.10;3.45;;;;;;;5.30;64.06;98742.53;10511421;28;20491;-67
2023/12/05 15:14:55;;;;;;;4.65;1.90;;;;;;;5.20;64.01;98744.00;10504628;28;20138;-67
2023/12/05 15:19:58;;;;;;;4.40;1.60;;;;;;;5.17;64.32;98742.41;10492326;28;20528;-67
2023/12/05 15:25:21;;;;;;;2.17;1.10;;;;;;;5.05;64.41;98752.63;10492556;28;20044;-67
2023/12/05 15:30:23;;;;;;;3.20;1.95;;;;;;;4.98;64.60;98756.50;10510765;28;20975;-67
2023/12/05 15:35:25;;;;;;;1.10;0.70;;;;;;;4.85;64.65;98764.09;10512226;28;20101;-67
2023/12/05 15:40:27;;;;;;;2.20;0.75;;;;;;;4.81;64.69;98761.75;10489663;28;20040;-67
2023/12/05 15:45:29;;;;;;;1.58;0.90;;;;;;;4.67;64.80;98781.47;10513616;28;20050;-66
2023/12/05 15:50:31;;;;;;;0.57;0.52;;;;;;;4.50;64.83;98780.69;10514231;28;20059;-67
2023/12/05 15:55:36;;;;;;;1.08;0.60;;;;;;;4.50;64.83;98785.88;10511685;28;20056;-66
2023/12/05 16:00:38;;;;;;;0.45;0.45;;;;;;;4.52;64.79;98792.66;10514059;28;20055;-66
2023/12/05 16:05:40;;;;;;;0.90;0.50;;;;;;;4.52;64.83;98792.66;10516236;28;20040;-66
2023/12/05 16:10:45;;;;;;;1.55;1.10;;;;;;;4.52;64.68;98795.25;10516867;28;20044;-66
2023/12/05 16:15:47;;;;;;;0.73;0.70;;;;;;;4.44;64.57;98807.75;10513984;28;20234;-66
2023/12/05 16:20:49;;;;;;;0.77;0.60;;;;;;;4.37;64.66;98808.97;10516131;28;20044;-66
2023/12/05 16:25:51;;;;;;;0.55;0.55;;;;;;;4.38;64.98;98815.84;10510368;28;20072;-66
2023/12/05 16:30:52;;;;;;;0.73;0.55;;;;;;;4.39;64.63;98817.50;10516957;28;20040;-63
2023/12/05 16:35:58;;;;;;;0.65;0.57;;;;;;;4.41;64.61;98823.44;10507581;28;20056;-63
2023/12/05 16:41:00;;;;;;;0.82;0.70;;;;;;;4.35;64.69;98822.94;10513070;28;20050;-63
2023/12/05 16:46:02;;;;;;;0.82;0.73;;;;;;;4.30;64.76;98824.91;10481449;28;20055;-63
2023/12/05 16:51:05;;;;;;;0.55;0.55;;;;;;;4.32;64.71;98828.25;10516939;28;20052;-62
2023/12/05 16:56:10;;;;;;;1.52;0.90;;;;;;;4.31;64.92;98826.59;10515670;28;20125;-62
2023/12/05 17:01:12;;;;;;;1.33;0.90;;;;;;;4.30;64.89;98830.94;10516066;28;20059;-62
2023/12/05 17:06:15;;;;;;;3.22;1.25;;;;;;;4.21;64.96;98833.19;10513380;28;20660;-63
2023/12/05 17:11:18;;;;;;;1.63;1.05;;;;;;;4.14;64.97;98847.31;10480635;28;20094;-62
2023/12/05 17:16:20;;;;;;;3.25;1.30;;;;;;;4.18;65.14;98848.84;10515586;28;20080;-62
2023/12/05 17:21:22;;;;;;;3.95;1.73;;;;;;;4.27;64.83;98853.56;10514009;28;20044;-63
2023/12/05 17:26:24;;;;;;;2.58;1.40;;;;;;;4.28;64.63;98848.28;10513316;28;20058;-63
2023/12/05 17:31:26;;;;;;;6.28;1.98;;;;;;;4.22;64.86;98855.53;10515130;28;20040;-63
2023/12/05 17:36:28;;;;;;;7.90;3.47;;;;;;;4.18;64.62;98864.38;10513601;28;20048;-63
2023/12/05 17:41:30;;;;;;;4.47;2.05;;;;;;;4.13;65.02;98864.59;10514335;28;20458;-62
2023/12/05 17:46:33;;;;;;;7.68;2.67;;;;;;;4.23;65.00;98865.78;10473318;28;20044;-63
2023/12/05 17:51:36;;;;;;;9.32;4.05;;;;;;;4.26;64.81;98868.25;10490985;28;20048;-62
2023/12/05 17:56:38;;;;;;;6.25;2.45;;;;;;;4.26;64.98;98868.25;10519743;28;20051;-63
2023/12/05 18:01:40;;;;;;;6.72;2.80;;;;;;;4.36;64.94;98873.78;10497419;28;20144;-63
2023/12/05 18:06:43;;;;;;;4.03;2.28;;;;;;;4.49;64.57;98873.09;10493571;28;20269;-63
2023/12/05 18:11:45;;;;;;;4.95;2.78;;;;;;;4.53;64.49;98879.78;10514338;28;20568;-63
2023/12/05 18:16:47;;;;;;;4.75;2.65;;;;;;;4.55;64.32;98890.03;10515298;28;20040;-63
2023/12/05 18:21:49;;;;;;;1.98;1.20;;;;;;;4.59;64.15;98896.75;10517080;28;20140;-63
2023/12/05 18:26:51;;;;;;;1.67;1.05;;;;;;;4.60;64.24;98899.25;10516719;28;20044;-63
2023/12/05 18:31:53;;;;;;;2.03;1.33;;;;;;;4.50;64.44;98900.63;10499624;28;20043;-63
2023/12/05 18:36:56;;;;;;;1.30;0.77;;;;;;;4.34;64.70;98907.50;10517296;28;20102;-63
2023/12/05 18:41:59;;;;;;;1.92;1.02;;;;;;;4.30;65.05;98900.81;10513938;28;20054;-63
2023/12/05 18:47:01;;;;;;;1.52;1.00;;;;;;;4.37;64.92;98911.69;10515619;28;20062;-63
2023/12/05 18:52:03;;;;;;;1.75;1.05;;;;;;;4.45;64.81;98922.50;10515320;28;20040;-63
2023/12/05 18:57:05;;;;;;;1.27;0.90;;;;;;;4.53;64.72;98922.94;10502622;28;20392;-63
2023/12/05 19:02:07;;;;;;;1.95;1.08;;;;;;;4.57;64.50;98927.91;10518467;28;20056;-63
2023/12/05 19:07:12;;;;;;;1.58;1.00;;;;;;;4.50;64.64;98934.28;10516139;28;20047;-63
2023/12/05 19:12:16;;;;;;;0.93;0.85;;;;;;;4.52;64.58;98936.78;10519865;28;20181;-63
2023/12/05 19:17:18;;;;;;;2.25;1.00;;;;;;;4.49;64.66;98939.56;10519783;28;20040;-62
2023/12/05 19:22:21;;;;;;;2.97;1.20;;;;;;;4.38;64.97;98947.00;10519073;28;20040;-63
2023/12/05 19:27:23;;;;;;;1.52;0.95;;;;;;;4.41;64.92;98954.63;10519976;28;20483;-63
2023/12/05 19:32:25;;;;;;;0.90;0.90;;;;;;;4.42;64.97;98953.72;10518424;28;20159;-63
2023/12/05 19:37:27;;;;;;;3.85;2.25;;;;;;;4.39;64.91;98964.22;10517195;28;20063;-63
2023/12/05 19:42:30;;;;;;;6.30;3.00;;;;;;;4.41;65.01;98965.00;10500442;28;20127;-64
2023/12/05 19:47:33;;;;;;;4.13;1.98;;;;;;;4.40;64.87;98969.31;10517578;28;20156;-63
2023/12/05 19:52:35;;;;;;;2.85;1.65;;;;;;;4.42;64.89;98970.09;10499368;28;20076;-64
2023/12/05 19:57:37;;;;;;;2.45;1.40;;;;;;;4.39;64.82;98977.19;10518429;28;20051;-64
2023/12/05 20:02:40;;;;;;;3.85;1.83;;;;;;;4.36;64.93;98980.75;10499822;28;20137;-64
2023/12/05 20:07:42;;;;;;;2.97;2.05;;;;;;;4.35;64.96;98989.41;10518417;28;20052;-63
2023/12/05 20:12:44;;;;;;;3.47;1.70;;;;;;;4.31;65.07;98992.25;10518372;28;20048;-63
2023/12/05 20:17:46;;;;;;;4.55;2.63;;;;;;;4.29;65.10;98987.13;10515895;28;20044;-64
2023/12/05 20:22:48;;;;;;;4.05;2.35;;;;;;;4.24;65.09;98998.63;10517046;28;20128;-64
2023/12/05 20:27:50;;;;;;;3.35;2.05;;;;;;;4.21;65.21;99004.78;10516946;28;20385;-64
2023/12/05 20:32:52;;;;;;;2.92;1.50;;;;;;;4.12;65.72;99001.81;10516739;28;20040;-65
2023/12/05 20:37:54;;;;;;;3.38;1.98;;;;;;;4.06;65.85;99004.69;10517100;28;20074;-65
2023/12/05 20:42:57;;;;;;;3.20;1.88;;;;;;;4.04;66.10;99017.72;10511963;28;20053;-65
2023/12/05 20:47:59;;;;;;;4.10;1.95;;;;;;;4.14;65.89;99018.94;10495574;28;20056;-65
2023/12/05 20:53:01;;;;;;;3.45;1.55;;;;;;;4.20;65.57;99018.66;10515415;28;20430;-65
2023/12/05 20:58:03;;;;;;;3.67;1.88;;;;;;;4.22;65.45;99016.81;10515035;28;20927;-65
2023/12/05 21:03:05;;;;;;;2.53;1.42;;;;;;;4.26;65.44;99022.69;10515323;28;20040;-65
2023/12/05 21:08:12;;;;;;;3.05;1.50;;;;;;;4.25;65.58;99027.00;10496445;28;20426;-65
2023/12/05 21:13:14;;;;;;;2.17;1.40;;;;;;;4.25;65.45;99026.19;10512237;28;20121;-65
2023/12/05 21:18:17;;;;;;;3.20;1.88;;;;;;;4.23;65.60;99035.78;10508076;28;20055;-65
2023/12/05 21:23:19;;;;;;;5.10;1.80;;;;;;;4.20;65.56;99049.69;10513291;28;20080;-65
2023/12/05 21:28:21;;;;;;;2.80;1.80;;;;;;;4.22;65.68;99049.63;10514280;28;20054;-65
2023/12/05 21:33:23;;;;;;;2.50;1.50;;;;;;;4.25;65.74;99052.06;10522736;28;20052;-66
2023/12/05 21:38:26;;;;;;;4.03;2.05;;;;;;;4.29;65.65;99059.59;10521140;28;20047;-66
2023/12/05 21:43:28;;;;;;;3.42;1.52;;;;;;;4.28;65.34;99057.94;10521541;28;20543;-65
2023/12/05 21:48:30;;;;;;;3.47;1.92;;;;;;;4.32;65.38;99062.06;10482102;28;20040;-66
2023/12/05 21:53:32;;;;;;;2.92;1.70;;;;;;;4.34;65.46;99072.31;10521336;28;20635;-66
2023/12/05 21:58:36;;;;;;;2.85;1.63;;;;;;;4.36;65.32;99073.94;10521701;28;20056;-65
2023/12/05 22:03:39;;;;;;;3.50;1.80;;;;;;;4.34;65.42;99088.69;10520090;28;20044;-66
2023/12/05 22:08:41;;;;;;;3.33;1.83;;;;;;;4.33;65.52;99081.81;10520668;28;20058;-65
2023/12/05 22:13:45;;;;;;;3.45;2.20;;;;;;;4.34;65.53;99088.69;10521527;28;20541;-65
2023/12/05 22:18:48;;;;;;;7.00;3.33;;;;;;;4.36;65.54;99093.78;10502433;28;20052;-66
2023/12/05 22:23:50;;;;;;;5.13;2.90;;;;;;;4.32;65.58;99095.69;10520481;28;20040;-65
2023/12/05 22:28:52;;;;;;;4.05;2.05;;;;;;;4.31;65.48;99093.19;10519866;28;20044;-66
2023/12/05 22:33:55;;;;;;;4.97;2.28;;;;;;;4.26;65.69;99106.34;10502093;28;20107;-65
2023/12/05 22:38:57;;;;;;;5.72;2.20;;;;;;;4.25;65.73;99112.41;10519266;28;20050;-65
2023/12/05 22:43:59;;;;;;;3.08;2.00;;;;;;;4.25;65.85;99121.94;10518104;28;20411;-65
2023/12/05 22:49:01;;;;;;;3.38;2.00;;;;;;;4.15;65.93;99126.69;10519435;28;20055;-65
2023/12/05 22:54:04;;;;;;;5.10;2.28;;;;;;;4.17;65.86;99130.06;10502751;28;20110;-65
2023/12/05 22:59:06;;;;;;;3.65;1.83;;;;;;;4.13;65.93;99125.94;10520306;28;20503;-65
2023/12/05 23:04:08;;;;;;;2.70;1.70;;;;;;;4.11;65.98;99130.34;10521453;28;20048;-65
2023/12/05 23:09:10;;;;;;;3.15;1.73;;;;;;;4.14;65.90;99137.13;10501779;28;20044;-65
2023/12/05 23:14:12;;;;;;;3.92;2.08;;;;;;;4.20;65.80;99149.78;10520719;28;20127;-65
2023/12/05 23:19:14;;;;;;;5.28;2.70;;;;;;;4.21;65.78;99154.88;10503125;28;20162;-65
2023/12/05 23:24:17;;;;;;;3.85;2.05;;;;;;;4.21;65.50;99147.13;10520559;28;20062;-66
2023/12/05 23:29:20;;;;;;;7.55;2.17;;;;;;;4.15;65.58;99142.22;10502328;28;20044;-66
2023/12/05 23:34:22;;;;;;;5.30;2.05;;;;;;;4.14;65.78;99143.16;10519601;28;20186;-63
2023/12/05 23:39:24;;;;;;;3.08;1.48;;;;;;;4.12;65.54;99152.72;10501484;28;20038;-65
2023/12/05 23:44:28;;;;;;;8.48;1.98;;;;;;;4.11;65.72;99150.22;10483997;28;20506;-65